sensor_id;sensor_type;location;lat;lon;timestamp;P1;durP1;ratioP1;P2;durP2;ratioP2
79790;SDS011;69278;52.220;5.172;2024-01-30T00:01:27;17.50;;;9.68;;
79790;SDS011;69278;52.220;5.172;2024-01-30T00:03:54;21.33;;;10.20;;
79790;SDS011;69278;52.220;5.172;2024-01-30T00:06:20;20.52;;;9.95;;
79790;SDS011;69278;52.220;5.172;2024-01-30T00:08:47;20.92;;;10.18;;
79790;SDS011;69278;52.220;5.172;2024-01-30T00:11:15;18.58;;;9.45;;
79790;SDS011;69278;52.220;5.172;2024-01-30T00:13:42;19.35;;;9.50;;
79790;SDS011;69278;52.220;5.172;2024-01-30T00:16:08;18.73;;;8.90;;
79790;SDS011;69278;52.220;5.172;2024-01-30T00:18:46;17.73;;;9.10;;
79790;SDS011;69278;52.220;5.172;2024-01-30T00:21:12;18.88;;;9.40;;
79790;SDS011;69278;52.220;5.172;2024-01-30T00:23:39;18.70;;;9.48;;
79790;SDS011;69278;52.220;5.172;2024-01-30T00:26:05;21.15;;;10.27;;
79790;SDS011;69278;52.220;5.172;2024-01-30T00:28:32;18.47;;;8.97;;
79790;SDS011;69278;52.220;5.172;2024-01-30T00:30:58;18.77;;;9.63;;
79790;SDS011;69278;52.220;5.172;2024-01-30T00:33:25;19.85;;;9.40;;
79790;SDS011;69278;52.220;5.172;2024-01-30T00:35:52;18.17;;;8.45;;
79790;SDS011;69278;52.220;5.172;2024-01-30T00:38:18;14.70;;;7.90;;
79790;SDS011;69278;52.220;5.172;2024-01-30T00:40:44;18.33;;;9.33;;
79790;SDS011;69278;52.220;5.172;2024-01-30T00:43:11;18.38;;;9.02;;
79790;SDS011;69278;52.220;5.172;2024-01-30T00:45:37;19.20;;;9.43;;
79790;SDS011;69278;52.220;5.172;2024-01-30T00:48:04;18.40;;;9.18;;
79790;SDS011;69278;52.220;5.172;2024-01-30T00:50:31;16.92;;;9.07;;
79790;SDS011;69278;52.220;5.172;2024-01-30T00:52:57;20.50;;;8.90;;
79790;SDS011;69278;52.220;5.172;2024-01-30T00:55:24;19.70;;;9.10;;
79790;SDS011;69278;52.220;5.172;2024-01-30T00:57:50;16.98;;;8.60;;
79790;SDS011;69278;52.220;5.172;2024-01-30T01:00:17;16.80;;;8.57;;
79790;SDS011;69278;52.220;5.172;2024-01-30T01:02:44;22.25;;;9.50;;
79790;SDS011;69278;52.220;5.172;2024-01-30T01:05:11;17.43;;;8.40;;
79790;SDS011;69278;52.220;5.172;2024-01-30T01:07:37;16.30;;;8.98;;
79790;SDS011;69278;52.220;5.172;2024-01-30T01:10:04;21.42;;;9.18;;
79790;SDS011;69278;52.220;5.172;2024-01-30T01:12:31;15.57;;;8.35;;
79790;SDS011;69278;52.220;5.172;2024-01-30T01:14:57;16.30;;;7.88;;
79790;SDS011;69278;52.220;5.172;2024-01-30T01:17:24;21.03;;;8.80;;
79790;SDS011;69278;52.220;5.172;2024-01-30T01:19:51;14.73;;;7.95;;
79790;SDS011;69278;52.220;5.172;2024-01-30T01:22:17;16.17;;;8.07;;
79790;SDS011;69278;52.220;5.172;2024-01-30T01:24:44;16.30;;;8.13;;
79790;SDS011;69278;52.220;5.172;2024-01-30T01:27:11;16.65;;;7.93;;
79790;SDS011;69278;52.220;5.172;2024-01-30T01:29:37;15.57;;;7.77;;
79790;SDS011;69278;52.220;5.172;2024-01-30T01:32:04;18.70;;;8.23;;
79790;SDS011;69278;52.220;5.172;2024-01-30T01:34:31;19.30;;;8.80;;
79790;SDS011;69278;52.220;5.172;2024-01-30T01:36:57;21.67;;;8.48;;
79790;SDS011;69278;52.220;5.172;2024-01-30T01:39:24;15.85;;;8.23;;
79790;SDS011;69278;52.220;5.172;2024-01-30T01:41:51;16.03;;;7.97;;
79790;SDS011;69278;52.220;5.172;2024-01-30T01:44:18;17.02;;;8.02;;
79790;SDS011;69278;52.220;5.172;2024-01-30T01:46:45;17.83;;;8.30;;
79790;SDS011;69278;52.220;5.172;2024-01-30T01:49:12;16.83;;;8.15;;
79790;SDS011;69278;52.220;5.172;2024-01-30T01:51:38;16.83;;;8.70;;
79790;SDS011;69278;52.220;5.172;2024-01-30T01:54:07;16.23;;;7.97;;
79790;SDS011;69278;52.220;5.172;2024-01-30T01:56:35;15.77;;;8.07;;
79790;SDS011;69278;52.220;5.172;2024-01-30T01:59:06;15.90;;;8.50;;
79790;SDS011;69278;52.220;5.172;2024-01-30T02:01:36;15.52;;;8.02;;
79790;SDS011;69278;52.220;5.172;2024-01-30T02:04:03;16.83;;;8.40;;
79790;SDS011;69278;52.220;5.172;2024-01-30T02:06:31;17.43;;;8.37;;
79790;SDS011;69278;52.220;5.172;2024-01-30T02:08:58;16.30;;;8.35;;
79790;SDS011;69278;52.220;5.172;2024-01-30T02:11:24;16.58;;;8.45;;
79790;SDS011;69278;52.220;5.172;2024-01-30T02:13:52;20.48;;;8.48;;
79790;SDS011;69278;52.220;5.172;2024-01-30T02:16:18;16.77;;;8.27;;
79790;SDS011;69278;52.220;5.172;2024-01-30T02:18:45;16.83;;;8.30;;
79790;SDS011;69278;52.220;5.172;2024-01-30T02:21:15;15.18;;;7.97;;
79790;SDS011;69278;52.220;5.172;2024-01-30T02:23:42;18.00;;;8.45;;
79790;SDS011;69278;52.220;5.172;2024-01-30T02:26:10;15.35;;;8.15;;
79790;SDS011;69278;52.220;5.172;2024-01-30T02:28:38;17.60;;;7.95;;
79790;SDS011;69278;52.220;5.172;2024-01-30T02:31:04;15.60;;;7.90;;
79790;SDS011;69278;52.220;5.172;2024-01-30T02:33:31;14.43;;;7.25;;
79790;SDS011;69278;52.220;5.172;2024-01-30T02:35:58;14.85;;;8.00;;
79790;SDS011;69278;52.220;5.172;2024-01-30T02:38:24;16.42;;;8.10;;
79790;SDS011;69278;52.220;5.172;2024-01-30T02:40:53;15.98;;;7.90;;
79790;SDS011;69278;52.220;5.172;2024-01-30T02:43:19;18.20;;;8.10;;
79790;SDS011;69278;52.220;5.172;2024-01-30T02:45:46;18.42;;;8.32;;
79790;SDS011;69278;52.220;5.172;2024-01-30T02:48:13;17.75;;;8.05;;
79790;SDS011;69278;52.220;5.172;2024-01-30T02:50:39;16.48;;;7.88;;
79790;SDS011;69278;52.220;5.172;2024-01-30T02:53:06;17.48;;;7.97;;
79790;SDS011;69278;52.220;5.172;2024-01-30T02:55:32;16.53;;;7.97;;
79790;SDS011;69278;52.220;5.172;2024-01-30T02:57:59;17.85;;;7.93;;
79790;SDS011;69278;52.220;5.172;2024-01-30T03:00:26;16.95;;;8.27;;
79790;SDS011;69278;52.220;5.172;2024-01-30T03:02:52;14.75;;;7.57;;
79790;SDS011;69278;52.220;5.172;2024-01-30T03:05:19;15.68;;;8.30;;
79790;SDS011;69278;52.220;5.172;2024-01-30T03:07:45;15.10;;;7.97;;
79790;SDS011;69278;52.220;5.172;2024-01-30T03:10:12;16.85;;;7.55;;
79790;SDS011;69278;52.220;5.172;2024-01-30T03:12:39;17.20;;;7.78;;
79790;SDS011;69278;52.220;5.172;2024-01-30T03:15:05;20.10;;;7.80;;
79790;SDS011;69278;52.220;5.172;2024-01-30T03:17:32;13.68;;;7.18;;
79790;SDS011;69278;52.220;5.172;2024-01-30T03:19:59;16.40;;;8.00;;
79790;SDS011;69278;52.220;5.172;2024-01-30T03:22:25;15.20;;;8.07;;
79790;SDS011;69278;52.220;5.172;2024-01-30T03:24:52;16.27;;;8.10;;
79790;SDS011;69278;52.220;5.172;2024-01-30T03:27:18;16.90;;;8.23;;
79790;SDS011;69278;52.220;5.172;2024-01-30T03:29:45;16.08;;;7.78;;
79790;SDS011;69278;52.220;5.172;2024-01-30T03:32:12;13.60;;;7.37;;
79790;SDS011;69278;52.220;5.172;2024-01-30T03:34:38;15.30;;;7.68;;
79790;SDS011;69278;52.220;5.172;2024-01-30T03:37:05;18.23;;;8.40;;
79790;SDS011;69278;52.220;5.172;2024-01-30T03:39:32;16.50;;;7.93;;
79790;SDS011;69278;52.220;5.172;2024-01-30T03:41:59;15.23;;;7.43;;
79790;SDS011;69278;52.220;5.172;2024-01-30T03:44:25;15.70;;;7.20;;
79790;SDS011;69278;52.220;5.172;2024-01-30T03:46:51;14.60;;;7.63;;
79790;SDS011;69278;52.220;5.172;2024-01-30T03:49:18;16.48;;;7.07;;
79790;SDS011;69278;52.220;5.172;2024-01-30T03:51:45;14.05;;;7.57;;
79790;SDS011;69278;52.220;5.172;2024-01-30T03:54:13;14.85;;;7.82;;
79790;SDS011;69278;52.220;5.172;2024-01-30T03:56:40;16.80;;;7.90;;
79790;SDS011;69278;52.220;5.172;2024-01-30T03:59:07;16.55;;;7.80;;
79790;SDS011;69278;52.220;5.172;2024-01-30T04:01:33;15.52;;;7.70;;
79790;SDS011;69278;52.220;5.172;2024-01-30T04:04:00;17.80;;;8.20;;
79790;SDS011;69278;52.220;5.172;2024-01-30T04:06:27;15.52;;;7.55;;
79790;SDS011;69278;52.220;5.172;2024-01-30T04:08:53;14.43;;;7.50;;
79790;SDS011;69278;52.220;5.172;2024-01-30T04:11:20;18.25;;;7.88;;
79790;SDS011;69278;52.220;5.172;2024-01-30T04:13:46;15.00;;;7.82;;
79790;SDS011;69278;52.220;5.172;2024-01-30T04:16:20;19.25;;;8.30;;
79790;SDS011;69278;52.220;5.172;2024-01-30T04:18:49;16.58;;;8.20;;
79790;SDS011;69278;52.220;5.172;2024-01-30T04:21:15;16.83;;;8.17;;
79790;SDS011;69278;52.220;5.172;2024-01-30T04:23:42;14.80;;;7.68;;
79790;SDS011;69278;52.220;5.172;2024-01-30T04:26:08;16.48;;;8.07;;
79790;SDS011;69278;52.220;5.172;2024-01-30T04:28:35;14.57;;;7.25;;
79790;SDS011;69278;52.220;5.172;2024-01-30T04:31:01;16.92;;;7.75;;
79790;SDS011;69278;52.220;5.172;2024-01-30T04:33:28;16.07;;;7.77;;
79790;SDS011;69278;52.220;5.172;2024-01-30T04:35:55;18.92;;;8.57;;
79790;SDS011;69278;52.220;5.172;2024-01-30T04:38:21;18.88;;;8.73;;
79790;SDS011;69278;52.220;5.172;2024-01-30T04:40:47;18.95;;;8.20;;
79790;SDS011;69278;52.220;5.172;2024-01-30T04:43:14;18.95;;;8.73;;
79790;SDS011;69278;52.220;5.172;2024-01-30T04:45:42;18.30;;;8.50;;
79790;SDS011;69278;52.220;5.172;2024-01-30T04:48:08;15.95;;;8.25;;
79790;SDS011;69278;52.220;5.172;2024-01-30T04:50:35;12.00;;;6.10;;
79790;SDS011;69278;52.220;5.172;2024-01-30T04:53:02;17.25;;;8.40;;
79790;SDS011;69278;52.220;5.172;2024-01-30T04:55:28;16.30;;;8.00;;
79790;SDS011;69278;52.220;5.172;2024-01-30T04:57:55;16.57;;;7.80;;
79790;SDS011;69278;52.220;5.172;2024-01-30T05:00:22;17.75;;;8.60;;
79790;SDS011;69278;52.220;5.172;2024-01-30T05:02:48;15.93;;;8.30;;
79790;SDS011;69278;52.220;5.172;2024-01-30T05:05:14;18.88;;;8.18;;
79790;SDS011;69278;52.220;5.172;2024-01-30T05:07:41;15.05;;;7.93;;
79790;SDS011;69278;52.220;5.172;2024-01-30T05:10:08;14.90;;;7.57;;
79790;SDS011;69278;52.220;5.172;2024-01-30T05:12:34;17.50;;;8.18;;
79790;SDS011;69278;52.220;5.172;2024-01-30T05:15:01;17.05;;;8.32;;
79790;SDS011;69278;52.220;5.172;2024-01-30T05:17:28;15.88;;;7.97;;
79790;SDS011;69278;52.220;5.172;2024-01-30T05:19:54;17.55;;;8.07;;
79790;SDS011;69278;52.220;5.172;2024-01-30T05:22:21;17.53;;;8.50;;
79790;SDS011;69278;52.220;5.172;2024-01-30T05:24:47;17.33;;;7.90;;
79790;SDS011;69278;52.220;5.172;2024-01-30T05:27:14;18.85;;;8.23;;
79790;SDS011;69278;52.220;5.172;2024-01-30T05:29:40;15.30;;;7.63;;
79790;SDS011;69278;52.220;5.172;2024-01-30T05:32:07;15.13;;;7.30;;
79790;SDS011;69278;52.220;5.172;2024-01-30T05:34:33;15.53;;;7.03;;
79790;SDS011;69278;52.220;5.172;2024-01-30T05:37:00;17.60;;;8.02;;
79790;SDS011;69278;52.220;5.172;2024-01-30T05:39:27;20.92;;;8.27;;
79790;SDS011;69278;52.220;5.172;2024-01-30T05:41:53;14.85;;;7.40;;
79790;SDS011;69278;52.220;5.172;2024-01-30T05:44:20;19.55;;;8.40;;
79790;SDS011;69278;52.220;5.172;2024-01-30T05:46:46;16.93;;;7.87;;
79790;SDS011;69278;52.220;5.172;2024-01-30T05:49:13;15.57;;;7.82;;
79790;SDS011;69278;52.220;5.172;2024-01-30T05:51:39;17.45;;;8.02;;
79790;SDS011;69278;52.220;5.172;2024-01-30T05:54:06;15.30;;;7.45;;
79790;SDS011;69278;52.220;5.172;2024-01-30T05:56:33;17.63;;;8.05;;
79790;SDS011;69278;52.220;5.172;2024-01-30T05:59:00;15.43;;;7.00;;
79790;SDS011;69278;52.220;5.172;2024-01-30T06:01:26;14.82;;;7.70;;
79790;SDS011;69278;52.220;5.172;2024-01-30T06:03:53;14.55;;;7.78;;
79790;SDS011;69278;52.220;5.172;2024-01-30T06:06:20;16.95;;;7.93;;
79790;SDS011;69278;52.220;5.172;2024-01-30T06:08:46;19.15;;;7.55;;
79790;SDS011;69278;52.220;5.172;2024-01-30T06:11:13;14.17;;;7.03;;
79790;SDS011;69278;52.220;5.172;2024-01-30T06:13:39;14.60;;;7.55;;
79790;SDS011;69278;52.220;5.172;2024-01-30T06:16:09;15.27;;;7.38;;
79790;SDS011;69278;52.220;5.172;2024-01-30T06:18:38;15.60;;;7.35;;
79790;SDS011;69278;52.220;5.172;2024-01-30T06:21:05;18.70;;;8.13;;
79790;SDS011;69278;52.220;5.172;2024-01-30T06:23:33;14.57;;;6.90;;
79790;SDS011;69278;52.220;5.172;2024-01-30T06:26:00;16.45;;;7.78;;
79790;SDS011;69278;52.220;5.172;2024-01-30T06:28:26;15.18;;;7.22;;
79790;SDS011;69278;52.220;5.172;2024-01-30T06:30:53;16.05;;;7.70;;
79790;SDS011;69278;52.220;5.172;2024-01-30T06:33:19;16.98;;;7.25;;
79790;SDS011;69278;52.220;5.172;2024-01-30T06:35:46;13.30;;;7.07;;
79790;SDS011;69278;52.220;5.172;2024-01-30T06:38:12;13.88;;;7.22;;
79790;SDS011;69278;52.220;5.172;2024-01-30T06:40:39;15.63;;;7.18;;
79790;SDS011;69278;52.220;5.172;2024-01-30T06:43:06;14.95;;;6.88;;
79790;SDS011;69278;52.220;5.172;2024-01-30T06:45:34;15.52;;;7.13;;
79790;SDS011;69278;52.220;5.172;2024-01-30T06:48:00;13.47;;;7.43;;
79790;SDS011;69278;52.220;5.172;2024-01-30T06:50:27;14.73;;;6.18;;
79790;SDS011;69278;52.220;5.172;2024-01-30T06:52:54;12.77;;;6.75;;
79790;SDS011;69278;52.220;5.172;2024-01-30T06:55:20;15.15;;;7.35;;
79790;SDS011;69278;52.220;5.172;2024-01-30T06:57:47;15.05;;;6.97;;
79790;SDS011;69278;52.220;5.172;2024-01-30T07:00:16;12.33;;;5.97;;
79790;SDS011;69278;52.220;5.172;2024-01-30T07:02:45;14.25;;;6.75;;
79790;SDS011;69278;52.220;5.172;2024-01-30T07:05:11;14.82;;;7.10;;
79790;SDS011;69278;52.220;5.172;2024-01-30T07:07:39;13.80;;;6.85;;
79790;SDS011;69278;52.220;5.172;2024-01-30T07:10:06;14.35;;;6.97;;
79790;SDS011;69278;52.220;5.172;2024-01-30T07:12:33;13.83;;;6.80;;
79790;SDS011;69278;52.220;5.172;2024-01-30T07:15:00;12.70;;;6.13;;
79790;SDS011;69278;52.220;5.172;2024-01-30T07:17:27;7.80;;;3.75;;
79790;SDS011;69278;52.220;5.172;2024-01-30T07:19:53;9.13;;;4.15;;
79790;SDS011;69278;52.220;5.172;2024-01-30T07:22:20;10.65;;;4.60;;
79790;SDS011;69278;52.220;5.172;2024-01-30T07:24:47;8.27;;;4.17;;
79790;SDS011;69278;52.220;5.172;2024-01-30T07:27:15;10.73;;;4.57;;
79790;SDS011;69278;52.220;5.172;2024-01-30T07:29:44;9.13;;;4.60;;
79790;SDS011;69278;52.220;5.172;2024-01-30T07:32:10;9.13;;;4.07;;
79790;SDS011;69278;52.220;5.172;2024-01-30T07:34:37;10.40;;;4.25;;
79790;SDS011;69278;52.220;5.172;2024-01-30T07:37:18;8.80;;;4.57;;
79790;SDS011;69278;52.220;5.172;2024-01-30T07:39:45;10.48;;;4.60;;
79790;SDS011;69278;52.220;5.172;2024-01-30T07:42:12;8.73;;;4.20;;
79790;SDS011;69278;52.220;5.172;2024-01-30T07:44:38;9.82;;;4.43;;
79790;SDS011;69278;52.220;5.172;2024-01-30T07:47:05;9.65;;;4.65;;
79790;SDS011;69278;52.220;5.172;2024-01-30T07:49:31;8.17;;;4.00;;
79790;SDS011;69278;52.220;5.172;2024-01-30T07:51:58;8.70;;;4.47;;
79790;SDS011;69278;52.220;5.172;2024-01-30T07:54:24;11.13;;;4.72;;
79790;SDS011;69278;52.220;5.172;2024-01-30T07:56:51;12.52;;;4.95;;
79790;SDS011;69278;52.220;5.172;2024-01-30T07:59:18;10.52;;;4.35;;
79790;SDS011;69278;52.220;5.172;2024-01-30T08:01:45;8.67;;;4.17;;
79790;SDS011;69278;52.220;5.172;2024-01-30T08:04:12;9.57;;;4.43;;
79790;SDS011;69278;52.220;5.172;2024-01-30T08:06:38;9.90;;;4.43;;
79790;SDS011;69278;52.220;5.172;2024-01-30T08:09:09;8.30;;;4.05;;
79790;SDS011;69278;52.220;5.172;2024-01-30T08:11:35;8.77;;;4.28;;
79790;SDS011;69278;52.220;5.172;2024-01-30T08:14:02;9.93;;;4.53;;
79790;SDS011;69278;52.220;5.172;2024-01-30T08:16:28;8.55;;;4.10;;
79790;SDS011;69278;52.220;5.172;2024-01-30T08:18:55;8.10;;;4.32;;
79790;SDS011;69278;52.220;5.172;2024-01-30T08:21:24;13.43;;;5.95;;
79790;SDS011;69278;52.220;5.172;2024-01-30T08:23:50;12.18;;;5.93;;
79790;SDS011;69278;52.220;5.172;2024-01-30T08:26:17;11.87;;;6.13;;
79790;SDS011;69278;52.220;5.172;2024-01-30T08:28:43;12.07;;;5.55;;
79790;SDS011;69278;52.220;5.172;2024-01-30T08:31:10;11.48;;;5.53;;
79790;SDS011;69278;52.220;5.172;2024-01-30T08:33:38;15.98;;;6.60;;
79790;SDS011;69278;52.220;5.172;2024-01-30T08:36:06;14.98;;;6.22;;
79790;SDS011;69278;52.220;5.172;2024-01-30T08:38:33;10.10;;;5.00;;
79790;SDS011;69278;52.220;5.172;2024-01-30T08:41:00;14.40;;;6.72;;
79790;SDS011;69278;52.220;5.172;2024-01-30T08:43:27;11.05;;;5.20;;
79790;SDS011;69278;52.220;5.172;2024-01-30T08:45:53;12.70;;;5.35;;
79790;SDS011;69278;52.220;5.172;2024-01-30T08:48:20;13.23;;;5.95;;
79790;SDS011;69278;52.220;5.172;2024-01-30T08:50:47;14.53;;;5.97;;
79790;SDS011;69278;52.220;5.172;2024-01-30T08:53:14;14.52;;;6.32;;
79790;SDS011;69278;52.220;5.172;2024-01-30T08:55:40;14.85;;;6.20;;
79790;SDS011;69278;52.220;5.172;2024-01-30T08:58:07;13.20;;;6.05;;
79790;SDS011;69278;52.220;5.172;2024-01-30T09:00:34;14.40;;;5.60;;
79790;SDS011;69278;52.220;5.172;2024-01-30T09:03:01;12.33;;;5.93;;
79790;SDS011;69278;52.220;5.172;2024-01-30T09:05:30;15.98;;;6.40;;
79790;SDS011;69278;52.220;5.172;2024-01-30T09:07:56;12.77;;;6.00;;
79790;SDS011;69278;52.220;5.172;2024-01-30T09:10:23;11.90;;;5.38;;
79790;SDS011;69278;52.220;5.172;2024-01-30T09:12:49;12.60;;;5.78;;
79790;SDS011;69278;52.220;5.172;2024-01-30T09:15:16;15.47;;;6.30;;
79790;SDS011;69278;52.220;5.172;2024-01-30T09:17:42;13.55;;;6.00;;
79790;SDS011;69278;52.220;5.172;2024-01-30T09:20:09;8.90;;;4.50;;
79790;SDS011;69278;52.220;5.172;2024-01-30T09:22:36;10.57;;;5.03;;
79790;SDS011;69278;52.220;5.172;2024-01-30T09:25:03;13.52;;;5.80;;
79790;SDS011;69278;52.220;5.172;2024-01-30T09:27:30;13.57;;;5.60;;
79790;SDS011;69278;52.220;5.172;2024-01-30T09:29:57;13.50;;;6.28;;
79790;SDS011;69278;52.220;5.172;2024-01-30T09:32:24;9.13;;;3.80;;
79790;SDS011;69278;52.220;5.172;2024-01-30T09:34:50;12.23;;;5.47;;
79790;SDS011;69278;52.220;5.172;2024-01-30T09:37:17;10.82;;;5.43;;
79790;SDS011;69278;52.220;5.172;2024-01-30T09:39:44;12.70;;;5.40;;
79790;SDS011;69278;52.220;5.172;2024-01-30T09:42:22;12.68;;;6.20;;
79790;SDS011;69278;52.220;5.172;2024-01-30T09:44:51;13.07;;;5.80;;
79790;SDS011;69278;52.220;5.172;2024-01-30T09:47:19;13.32;;;6.55;;
79790;SDS011;69278;52.220;5.172;2024-01-30T09:49:46;16.40;;;6.40;;
79790;SDS011;69278;52.220;5.172;2024-01-30T09:52:14;17.73;;;7.17;;
79790;SDS011;69278;52.220;5.172;2024-01-30T09:54:41;14.38;;;6.13;;
79790;SDS011;69278;52.220;5.172;2024-01-30T09:57:08;11.68;;;5.95;;
79790;SDS011;69278;52.220;5.172;2024-01-30T09:59:35;15.43;;;6.55;;
79790;SDS011;69278;52.220;5.172;2024-01-30T10:02:02;9.90;;;4.82;;
79790;SDS011;69278;52.220;5.172;2024-01-30T10:04:30;15.03;;;6.20;;
79790;SDS011;69278;52.220;5.172;2024-01-30T10:06:57;11.50;;;5.90;;
79790;SDS011;69278;52.220;5.172;2024-01-30T10:09:26;12.90;;;6.32;;
79790;SDS011;69278;52.220;5.172;2024-01-30T10:11:52;16.35;;;6.45;;
79790;SDS011;69278;52.220;5.172;2024-01-30T10:14:20;10.68;;;4.95;;
79790;SDS011;69278;52.220;5.172;2024-01-30T10:16:47;11.47;;;5.73;;
79790;SDS011;69278;52.220;5.172;2024-01-30T10:19:13;14.52;;;6.45;;
79790;SDS011;69278;52.220;5.172;2024-01-30T10:21:40;15.98;;;7.03;;
79790;SDS011;69278;52.220;5.172;2024-01-30T10:24:07;14.57;;;6.32;;
79790;SDS011;69278;52.220;5.172;2024-01-30T10:26:33;13.60;;;6.00;;
79790;SDS011;69278;52.220;5.172;2024-01-30T10:29:00;12.63;;;5.73;;
79790;SDS011;69278;52.220;5.172;2024-01-30T10:31:27;16.52;;;6.80;;
79790;SDS011;69278;52.220;5.172;2024-01-30T10:33:53;14.68;;;5.65;;
79790;SDS011;69278;52.220;5.172;2024-01-30T10:36:40;10.00;;;5.00;;
79790;SDS011;69278;52.220;5.172;2024-01-30T10:39:09;14.57;;;5.53;;
79790;SDS011;69278;52.220;5.172;2024-01-30T10:41:42;13.10;;;5.57;;
79790;SDS011;69278;52.220;5.172;2024-01-30T10:44:13;11.23;;;4.75;;
79790;SDS011;69278;52.220;5.172;2024-01-30T10:46:45;11.20;;;4.20;;
79790;SDS011;69278;52.220;5.172;2024-01-30T10:49:21;12.35;;;4.85;;
79790;SDS011;69278;52.220;5.172;2024-01-30T10:51:50;16.42;;;5.47;;
79790;SDS011;69278;52.220;5.172;2024-01-30T10:54:18;10.53;;;3.80;;
79790;SDS011;69278;52.220;5.172;2024-01-30T10:56:46;10.50;;;4.30;;
79790;SDS011;69278;52.220;5.172;2024-01-30T10:59:14;11.88;;;4.70;;
79790;SDS011;69278;52.220;5.172;2024-01-30T11:01:42;8.88;;;3.50;;
79790;SDS011;69278;52.220;5.172;2024-01-30T11:04:09;9.32;;;3.38;;
79790;SDS011;69278;52.220;5.172;2024-01-30T11:06:42;12.53;;;3.13;;
79790;SDS011;69278;52.220;5.172;2024-01-30T11:09:10;8.85;;;2.83;;
79790;SDS011;69278;52.220;5.172;2024-01-30T11:11:49;8.32;;;3.13;;
79790;SDS011;69278;52.220;5.172;2024-01-30T11:14:24;6.07;;;2.65;;
79790;SDS011;69278;52.220;5.172;2024-01-30T11:16:56;9.93;;;2.80;;
79790;SDS011;69278;52.220;5.172;2024-01-30T11:19:30;5.27;;;2.23;;
79790;SDS011;69278;52.220;5.172;2024-01-30T11:21:57;6.63;;;2.42;;
79790;SDS011;69278;52.220;5.172;2024-01-30T11:24:24;8.38;;;2.60;;
79790;SDS011;69278;52.220;5.172;2024-01-30T11:26:57;4.10;;;1.90;;
79790;SDS011;69278;52.220;5.172;2024-01-30T11:29:26;5.78;;;2.70;;
79790;SDS011;69278;52.220;5.172;2024-01-30T11:31:54;5.80;;;2.80;;
79790;SDS011;69278;52.220;5.172;2024-01-30T11:34:21;7.13;;;2.60;;
79790;SDS011;69278;52.220;5.172;2024-01-30T11:36:53;5.18;;;2.60;;
79790;SDS011;69278;52.220;5.172;2024-01-30T11:39:25;6.03;;;2.22;;
79790;SDS011;69278;52.220;5.172;2024-01-30T11:41:53;7.90;;;2.92;;
79790;SDS011;69278;52.220;5.172;2024-01-30T11:44:20;5.80;;;2.60;;
79790;SDS011;69278;52.220;5.172;2024-01-30T11:46:50;6.22;;;2.53;;
79790;SDS011;69278;52.220;5.172;2024-01-30T11:49:18;7.03;;;2.40;;
79790;SDS011;69278;52.220;5.172;2024-01-30T11:51:45;5.93;;;2.30;;
79790;SDS011;69278;52.220;5.172;2024-01-30T11:54:12;4.70;;;2.00;;
79790;SDS011;69278;52.220;5.172;2024-01-30T11:56:38;3.97;;;2.03;;
79790;SDS011;69278;52.220;5.172;2024-01-30T11:59:05;6.38;;;2.47;;
79790;SDS011;69278;52.220;5.172;2024-01-30T12:01:31;3.83;;;1.80;;
79790;SDS011;69278;52.220;5.172;2024-01-30T12:03:59;4.53;;;1.90;;
79790;SDS011;69278;52.220;5.172;2024-01-30T12:06:26;5.55;;;1.73;;
79790;SDS011;69278;52.220;5.172;2024-01-30T12:09:00;4.53;;;1.60;;
79790;SDS011;69278;52.220;5.172;2024-01-30T12:11:30;7.82;;;1.95;;
79790;SDS011;69278;52.220;5.172;2024-01-30T12:13:56;4.05;;;1.52;;
79790;SDS011;69278;52.220;5.172;2024-01-30T12:16:23;5.75;;;1.55;;
79790;SDS011;69278;52.220;5.172;2024-01-30T12:18:58;3.10;;;1.33;;
79790;SDS011;69278;52.220;5.172;2024-01-30T12:21:25;2.93;;;1.30;;
79790;SDS011;69278;52.220;5.172;2024-01-30T12:23:52;7.93;;;1.50;;
79790;SDS011;69278;52.220;5.172;2024-01-30T12:26:19;4.22;;;1.50;;
79790;SDS011;69278;52.220;5.172;2024-01-30T12:28:48;4.13;;;1.45;;
79790;SDS011;69278;52.220;5.172;2024-01-30T12:31:16;4.05;;;1.50;;
79790;SDS011;69278;52.220;5.172;2024-01-30T12:33:43;4.37;;;1.60;;
79790;SDS011;69278;52.220;5.172;2024-01-30T12:36:09;2.75;;;1.27;;
79790;SDS011;69278;52.220;5.172;2024-01-30T12:38:38;4.93;;;1.27;;
79790;SDS011;69278;52.220;5.172;2024-01-30T12:41:06;3.63;;;1.33;;
79790;SDS011;69278;52.220;5.172;2024-01-30T12:43:33;2.88;;;1.20;;
79790;SDS011;69278;52.220;5.172;2024-01-30T12:46:04;5.47;;;1.53;;
79790;SDS011;69278;52.220;5.172;2024-01-30T12:48:32;2.88;;;1.50;;
79790;SDS011;69278;52.220;5.172;2024-01-30T12:50:59;5.50;;;1.58;;
79790;SDS011;69278;52.220;5.172;2024-01-30T12:53:26;6.93;;;1.50;;
79790;SDS011;69278;52.220;5.172;2024-01-30T12:55:52;3.33;;;1.20;;
79790;SDS011;69278;52.220;5.172;2024-01-30T12:58:20;5.70;;;1.30;;
79790;SDS011;69278;52.220;5.172;2024-01-30T13:00:47;4.22;;;1.60;;
79790;SDS011;69278;52.220;5.172;2024-01-30T13:03:14;7.47;;;1.75;;
79790;SDS011;69278;52.220;5.172;2024-01-30T13:05:40;5.57;;;1.50;;
79790;SDS011;69278;52.220;5.172;2024-01-30T13:08:07;4.78;;;1.60;;
79790;SDS011;69278;52.220;5.172;2024-01-30T13:10:33;4.13;;;1.47;;
79790;SDS011;69278;52.220;5.172;2024-01-30T13:13:00;3.60;;;1.70;;
79790;SDS011;69278;52.220;5.172;2024-01-30T13:15:26;7.72;;;1.80;;
79790;SDS011;69278;52.220;5.172;2024-01-30T13:17:53;3.90;;;1.65;;
79790;SDS011;69278;52.220;5.172;2024-01-30T13:20:20;3.30;;;1.50;;
79790;SDS011;69278;52.220;5.172;2024-01-30T13:22:48;3.57;;;1.90;;
79790;SDS011;69278;52.220;5.172;2024-01-30T13:25:16;6.15;;;1.85;;
79790;SDS011;69278;52.220;5.172;2024-01-30T13:27:42;4.20;;;2.08;;
79790;SDS011;69278;52.220;5.172;2024-01-30T13:30:09;7.53;;;2.28;;
79790;SDS011;69278;52.220;5.172;2024-01-30T13:32:36;5.10;;;1.73;;
79790;SDS011;69278;52.220;5.172;2024-01-30T13:35:03;7.27;;;1.97;;
79790;SDS011;69278;52.220;5.172;2024-01-30T13:37:30;4.18;;;1.75;;
79790;SDS011;69278;52.220;5.172;2024-01-30T13:39:57;5.75;;;2.22;;
79790;SDS011;69278;52.220;5.172;2024-01-30T13:42:24;5.18;;;2.47;;
79790;SDS011;69278;52.220;5.172;2024-01-30T13:44:51;6.30;;;2.78;;
79790;SDS011;69278;52.220;5.172;2024-01-30T13:47:17;6.17;;;2.67;;
79790;SDS011;69278;52.220;5.172;2024-01-30T13:49:45;3.92;;;2.15;;
79790;SDS011;69278;52.220;5.172;2024-01-30T13:52:12;6.65;;;2.33;;
79790;SDS011;69278;52.220;5.172;2024-01-30T13:54:40;5.50;;;2.40;;
79790;SDS011;69278;52.220;5.172;2024-01-30T13:57:07;5.82;;;2.50;;
79790;SDS011;69278;52.220;5.172;2024-01-30T13:59:34;3.90;;;1.97;;
79790;SDS011;69278;52.220;5.172;2024-01-30T14:02:01;4.15;;;2.33;;
79790;SDS011;69278;52.220;5.172;2024-01-30T14:04:28;6.13;;;3.40;;
79790;SDS011;69278;52.220;5.172;2024-01-30T14:06:54;5.57;;;2.70;;
79790;SDS011;69278;52.220;5.172;2024-01-30T14:09:30;4.93;;;2.42;;
79790;SDS011;69278;52.220;5.172;2024-01-30T14:11:58;5.33;;;2.50;;
79790;SDS011;69278;52.220;5.172;2024-01-30T14:14:25;7.45;;;3.00;;
79790;SDS011;69278;52.220;5.172;2024-01-30T14:16:51;5.05;;;2.72;;
79790;SDS011;69278;52.220;5.172;2024-01-30T14:19:18;4.55;;;2.40;;
79790;SDS011;69278;52.220;5.172;2024-01-30T14:21:44;5.82;;;2.40;;
79790;SDS011;69278;52.220;5.172;2024-01-30T14:24:10;7.37;;;2.63;;
79790;SDS011;69278;52.220;5.172;2024-01-30T14:26:37;7.10;;;2.35;;
79790;SDS011;69278;52.220;5.172;2024-01-30T14:29:04;4.72;;;2.38;;
79790;SDS011;69278;52.220;5.172;2024-01-30T14:31:30;10.00;;;2.92;;
79790;SDS011;69278;52.220;5.172;2024-01-30T14:33:57;6.30;;;2.38;;
79790;SDS011;69278;52.220;5.172;2024-01-30T14:36:24;8.70;;;2.27;;
79790;SDS011;69278;52.220;5.172;2024-01-30T14:38:54;7.05;;;2.90;;